Time;durP1;ratioP1;P1;durP2;ratioP2;P2;SDS_P1;SDS_P2;PMS_P1;PMS_P2;Temp;Humidity;BMP_temperature;BMP_pressure;BME280_temperature;BME280_humidity;BME280_pressure;Samples;Min_cycle;Max_cycle;Signal;HPM_P1;HPM_P2
2021/10/15 00:00:22;;;;;;;1999.90;999.90;;;8.30;99.90;;;;;;5035725;28;20029;-74
2021/10/15 00:02:47;;;;;;;1999.90;999.90;;;8.30;99.90;;;;;;5036059;28;20369;-75
2021/10/15 00:05:13;;;;;;;1999.90;999.90;;;8.30;99.90;;;;;;5035695;28;20018;-74
2021/10/15 00:07:39;;;;;;;1999.90;999.90;;;8.20;99.90;;;;;;5035887;28;20100;-74
2021/10/15 00:10:06;;;;;;;1999.90;999.90;;;8.30;99.90;;;;;;5035844;28;20033;-74
2021/10/15 00:12:35;;;;;;;1999.90;999.90;;;8.20;99.90;;;;;;5034622;28;20465;-74
2021/10/15 00:15:02;;;;;;;1999.90;999.90;;;8.20;99.90;;;;;;5035948;28;20033;-73
2021/10/15 00:17:31;;;;;;;1999.90;999.90;;;8.20;99.90;;;;;;5035417;28;20101;-74
2021/10/15 00:19:57;;;;;;;1999.90;999.90;;;8.20;99.90;;;;;;5035993;28;20036;-74
2021/10/15 00:22:22;;;;;;;1999.90;999.90;;;8.20;99.90;;;;;;5035737;28;20037;-74
2021/10/15 00:24:49;;;;;;;1999.90;999.90;;;8.20;99.90;;;;;;5036024;28;20032;-74
2021/10/15 00:27:15;;;;;;;1999.90;999.90;;;8.20;99.90;;;;;;5017669;28;20056;-76
2021/10/15 00:29:40;;;;;;;1999.90;999.90;;;8.20;99.90;;;;;;5020372;28;20481;-73
2021/10/15 00:32:06;;;;;;;1999.90;999.90;;;8.20;99.90;;;;;;5033984;28;20033;-74
2021/10/15 00:34:32;;;;;;;1999.90;999.90;;;8.20;99.90;;;;;;5035549;28;20067;-74
2021/10/15 00:36:58;;;;;;;1999.90;999.90;;;8.20;99.90;;;;;;5035116;28;20101;-75
2021/10/15 00:39:23;;;;;;;1999.90;999.90;;;8.10;99.90;;;;;;5035402;28;20056;-75
2021/10/15 00:41:49;;;;;;;1999.90;999.90;;;8.20;99.90;;;;;;5035021;28;20063;-74
2021/10/15 00:44:15;;;;;;;1999.90;999.90;;;8.20;99.90;;;;;;5035118;28;20033;-75
2021/10/15 00:46:42;;;;;;;1999.90;999.90;;;8.20;99.90;;;;;;5035463;28;20049;-74
2021/10/15 00:49:10;;;;;;;1999.90;999.90;;;8.20;99.90;;;;;;5035176;28;20057;-74
2021/10/15 00:51:37;;;;;;;1999.90;999.90;;;8.30;99.90;;;;;;5034969;28;20025;-74
2021/10/15 00:54:04;;;;;;;1999.90;999.90;;;8.30;99.90;;;;;;5035037;28;20037;-76
2021/10/15 00:56:30;;;;;;;1999.90;999.90;;;8.30;99.90;;;;;;5035477;28;20028;-75
2021/10/15 00:58:58;;;;;;;1999.90;999.90;;;8.30;99.90;;;;;;5035363;28;20029;-73
2021/10/15 01:01:25;;;;;;;1999.90;999.90;;;8.30;99.90;;;;;;5034676;28;20025;-74
2021/10/15 01:03:51;;;;;;;1999.90;999.90;;;8.20;99.90;;;;;;5034763;28;20457;-74
2021/10/15 01:06:16;;;;;;;1999.90;999.90;;;8.20;99.90;;;;;;5034571;28;20021;-74
2021/10/15 01:08:46;;;;;;;1999.90;999.90;;;8.20;99.90;;;;;;5034757;28;20032;-76
2021/10/15 01:11:16;;;;;;;1999.90;999.90;;;8.20;99.90;;;;;;5034536;28;20068;-73
2021/10/15 01:13:43;;;;;;;1999.90;999.90;;;8.10;99.90;;;;;;5034514;28;20133;-73
2021/10/15 01:16:12;;;;;;;1999.90;999.90;;;8.10;99.90;;;;;;5034535;28;20487;-74
2021/10/15 01:18:39;;;;;;;1999.90;999.90;;;8.10;99.90;;;;;;5034055;28;20029;-74
2021/10/15 01:21:10;;;;;;;1999.90;999.90;;;8.10;99.90;;;;;;5032755;28;20053;-75
2021/10/15 01:23:37;;;;;;;1999.90;999.90;;;8.10;99.90;;;;;;5032743;28;20381;-74
2021/10/15 01:26:04;;;;;;;1999.90;999.90;;;8.00;99.90;;;;;;5033494;28;20030;-73
2021/10/15 01:28:31;;;;;;;1999.90;999.90;;;8.00;99.90;;;;;;5016872;28;20033;-74
2021/10/15 01:30:58;;;;;;;1999.90;999.90;;;7.90;99.90;;;;;;5034251;28;20049;-74
2021/10/15 01:33:24;;;;;;;1999.90;999.90;;;7.90;99.90;;;;;;5033828;28;20033;-74
2021/10/15 01:35:50;;;;;;;1999.90;999.90;;;7.90;99.90;;;;;;5033850;28;20032;-73
2021/10/15 01:38:17;;;;;;;1999.90;999.90;;;7.80;99.90;;;;;;5034066;28;20033;-74
2021/10/15 01:40:43;;;;;;;1999.90;999.90;;;7.80;99.90;;;;;;5034205;28;20377;-73
2021/10/15 01:43:11;;;;;;;1999.90;999.90;;;7.80;99.90;;;;;;5033756;28;20029;-73
2021/10/15 01:45:37;;;;;;;1999.90;999.90;;;7.70;99.90;;;;;;5033806;28;20044;-74
2021/10/15 01:48:03;;;;;;;1999.90;999.90;;;7.70;99.90;;;;;;5033670;28;20116;-73
2021/10/15 01:50:29;;;;;;;1999.90;999.90;;;7.70;99.90;;;;;;5033633;28;20536;-74
2021/10/15 01:52:56;;;;;;;1999.90;999.90;;;7.70;99.90;;;;;;5015972;28;20033;-73
2021/10/15 01:55:22;;;;;;;1999.90;999.90;;;7.70;99.90;;;;;;5033637;28;20056;-74
2021/10/15 01:57:48;;;;;;;1999.90;999.90;;;7.80;99.90;;;;;;5033360;28;20025;-74
2021/10/15 02:00:15;;;;;;;1999.90;999.90;;;7.70;99.90;;;;;;5033511;28;20025;-74
2021/10/15 02:02:43;;;;;;;1999.90;999.90;;;7.70;99.90;;;;;;5033586;28;20024;-74
2021/10/15 02:05:11;;;;;;;1999.90;999.90;;;7.80;99.90;;;;;;5033518;28;20036;-73
2021/10/15 02:07:37;;;;;;;1999.90;999.90;;;7.80;99.90;;;;;;5034071;28;20030;-72
2021/10/15 02:10:05;;;;;;;1999.90;999.90;;;7.80;99.90;;;;;;5017087;28;20021;-73
2021/10/15 02:12:30;;;;;;;1999.90;999.90;;;7.90;99.90;;;;;;5034365;28;20013;-74
2021/10/15 02:14:56;;;;;;;1999.90;999.90;;;7.90;99.90;;;;;;5016218;28;20117;-74
2021/10/15 02:17:22;;;;;;;1999.90;999.90;;;7.80;99.90;;;;;;5015867;28;20419;-74
2021/10/15 02:19:47;;;;;;;1999.90;999.90;;;7.70;99.90;;;;;;5033792;28;20072;-74
2021/10/15 02:22:14;;;;;;;1999.90;999.90;;;7.70;99.90;;;;;;5034522;28;20028;-73
2021/10/15 02:24:39;;;;;;;1999.90;999.90;;;7.70;99.90;;;;;;5033966;28;20109;-73
2021/10/15 02:27:05;;;;;;;1999.90;999.90;;;7.70;99.90;;;;;;5033674;28;20053;-73
2021/10/15 02:29:31;;;;;;;1999.90;999.90;;;7.80;99.90;;;;;;5033529;28;20029;-75
2021/10/15 02:31:57;;;;;;;1999.90;999.90;;;7.70;99.90;;;;;;5016153;28;20037;-77
2021/10/15 02:34:23;;;;;;;1999.90;999.90;;;7.70;99.90;;;;;;5034264;28;20036;-75
2021/10/15 02:36:49;;;;;;;1999.90;999.90;;;7.70;99.90;;;;;;5037524;28;20029;-74
2021/10/15 02:39:15;;;;;;;1999.90;999.90;;;7.70;99.90;;;;;;5038927;28;20029;-74
2021/10/15 02:41:42;;;;;;;1999.90;999.90;;;7.70;99.90;;;;;;5038545;28;20025;-74
2021/10/15 02:44:11;;;;;;;1999.90;999.90;;;7.70;99.90;;;;;;5038330;28;20036;-75
2021/10/15 02:46:38;;;;;;;1999.90;999.90;;;7.70;99.90;;;;;;5038563;28;20018;-74
2021/10/15 02:49:04;;;;;;;1999.90;999.90;;;7.80;99.90;;;;;;5038384;28;20033;-73
2021/10/15 02:51:31;;;;;;;1999.90;999.90;;;7.70;99.90;;;;;;5038007;28;20031;-74
2021/10/15 02:53:57;;;;;;;1999.90;999.90;;;7.70;99.90;;;;;;5038370;28;20040;-74
2021/10/15 02:56:25;;;;;;;1999.90;999.90;;;7.60;99.90;;;;;;5037939;28;20025;-75
2021/10/15 02:58:51;;;;;;;1999.90;999.90;;;7.70;99.90;;;;;;5037764;28;20025;-75
2021/10/15 03:01:18;;;;;;;1999.90;999.90;;;7.60;99.90;;;;;;5020169;28;20025;-74
2021/10/15 03:03:43;;;;;;;1999.90;999.90;;;7.60;99.90;;;;;;5020283;28;20047;-74
2021/10/15 03:06:09;;;;;;;1999.90;999.90;;;7.60;99.90;;;;;;5019841;28;20028;-74
2021/10/15 03:08:36;;;;;;;1999.90;999.90;;;7.70;99.90;;;;;;5037925;28;20030;-74
2021/10/15 03:11:01;;;;;;;1999.90;999.90;;;7.60;99.90;;;;;;5037776;28;20096;-74
2021/10/15 03:13:27;;;;;;;1999.90;999.90;;;7.60;99.90;;;;;;5037530;28;20425;-74
2021/10/15 03:15:53;;;;;;;1999.90;999.90;;;7.60;99.90;;;;;;5037404;28;20499;-74
2021/10/15 03:18:19;;;;;;;1999.90;999.90;;;7.60;99.90;;;;;;5019496;28;20035;-77
2021/10/15 03:20:45;;;;;;;1999.90;999.90;;;7.60;99.90;;;;;;5037646;28;20013;-73
2021/10/15 03:23:11;;;;;;;1999.90;999.90;;;7.60;99.90;;;;;;5036773;28;20025;-74
2021/10/15 03:25:37;;;;;;;1999.90;999.90;;;7.60;99.90;;;;;;5037240;28;20049;-73
2021/10/15 03:28:04;;;;;;;1999.90;999.90;;;7.60;99.90;;;;;;5037110;28;20069;-75
2021/10/15 03:30:30;;;;;;;1999.90;999.90;;;7.70;99.90;;;;;;5036825;28;20444;-75
2021/10/15 03:32:56;;;;;;;1999.90;999.90;;;7.70;99.90;;;;;;5037291;28;20049;-73
2021/10/15 03:35:22;;;;;;;1999.90;999.90;;;7.60;99.90;;;;;;5037116;28;20067;-74
2021/10/15 03:37:47;;;;;;;1999.90;999.90;;;7.60;99.90;;;;;;5037098;28;20037;-74
2021/10/15 03:40:14;;;;;;;1999.90;999.90;;;7.70;99.90;;;;;;5037318;28;20014;-76
2021/10/15 03:42:41;;;;;;;1999.90;999.90;;;7.80;99.90;;;;;;5036750;28;20034;-74
2021/10/15 03:45:08;;;;;;;1999.90;999.90;;;7.80;99.90;;;;;;5036866;28;20028;-74
2021/10/15 03:47:36;;;;;;;1999.90;999.90;;;7.80;99.90;;;;;;5036742;28;20035;-75
2021/10/15 03:50:03;;;;;;;1999.90;999.90;;;7.80;99.90;;;;;;5037059;28;20025;-74
2021/10/15 03:52:29;;;;;;;1999.90;999.90;;;7.80;99.90;;;;;;5036454;28;20088;-75
2021/10/15 03:54:54;;;;;;;1999.90;999.90;;;7.80;99.90;;;;;;5036820;28;20034;-75
2021/10/15 03:57:20;;;;;;;1999.90;999.90;;;7.70;99.90;;;;;;5037364;28;20021;-76
2021/10/15 03:59:46;;;;;;;1999.90;999.90;;;7.70;99.90;;;;;;5036676;28;20045;-74
2021/10/15 04:02:11;;;;;;;1999.90;999.90;;;7.70;99.90;;;;;;5018662;28;20489;-74
2021/10/15 04:04:37;;;;;;;1999.90;999.90;;;7.70;99.90;;;;;;5036614;28;20028;-74
2021/10/15 04:07:03;;;;;;;1999.90;999.90;;;7.70;99.90;;;;;;5036820;28;20030;-75
2021/10/15 04:09:28;;;;;;;1999.90;999.90;;;7.60;99.90;;;;;;5036390;28;20108;-75
2021/10/15 04:11:56;;;;;;;1999.90;999.90;;;7.70;99.90;;;;;;5036135;28;20053;-75
2021/10/15 04:14:23;;;;;;;1999.90;999.90;;;7.60;99.90;;;;;;5036118;28;20537;-75
2021/10/15 04:16:49;;;;;;;1999.90;999.90;;;7.70;99.90;;;;;;5036135;28;20108;-74
2021/10/15 04:19:15;;;;;;;1999.90;999.90;;;7.70;99.90;;;;;;5038092;28;20040;-76
2021/10/15 04:21:41;;;;;;;1999.90;999.90;;;7.60;99.90;;;;;;5039942;28;20030;-75
2021/10/15 04:24:06;;;;;;;1999.90;999.90;;;7.80;99.90;;;;;;5037395;28;20393;-75
2021/10/15 04:26:32;;;;;;;1999.90;999.90;;;8.00;99.90;;;;;;5034395;28;20057;-74
2021/10/15 04:28:58;;;;;;;1999.90;999.90;;;8.00;99.90;;;;;;5034783;28;20037;-75
2021/10/15 04:31:23;;;;;;;1999.90;999.90;;;7.90;99.90;;;;;;5034198;28;20041;-74
2021/10/15 04:33:50;;;;;;;1999.90;999.90;;;7.80;99.90;;;;;;5034467;28;20068;-73
2021/10/15 04:36:16;;;;;;;1999.90;999.90;;;7.70;99.90;;;;;;5017203;28;20025;-74
2021/10/15 04:38:42;;;;;;;1999.90;999.90;;;7.70;99.90;;;;;;5034865;28;20091;-75
2021/10/15 04:41:07;;;;;;;1999.90;999.90;;;7.70;99.90;;;;;;5034533;28;20017;-77
2021/10/15 04:43:34;;;;;;;1999.90;999.90;;;7.70;99.90;;;;;;5034216;28;20030;-74
2021/10/15 04:46:00;;;;;;;1999.90;999.90;;;7.60;99.90;;;;;;5034759;28;20014;-74
2021/10/15 04:48:26;;;;;;;1999.90;999.90;;;7.60;99.90;;;;;;5034491;28;20034;-75
2021/10/15 04:50:52;;;;;;;1999.90;999.90;;;7.60;99.90;;;;;;5034672;28;20022;-74
2021/10/15 04:53:17;;;;;;;1999.90;999.90;;;7.60;99.90;;;;;;5034436;28;20074;-74
2021/10/15 04:55:45;;;;;;;1999.90;999.90;;;7.60;99.90;;;;;;5016683;28;20055;-74
2021/10/15 04:58:11;;;;;;;1999.90;999.90;;;7.60;99.90;;;;;;5016637;28;20041;-74
2021/10/15 05:00:37;;;;;;;1999.90;999.90;;;7.70;99.90;;;;;;5016894;28;20388;-74
2021/10/15 05:03:02;;;;;;;1999.90;999.90;;;7.70;99.90;;;;;;5033839;28;20041;-75
2021/10/15 05:05:28;;;;;;;1999.90;999.90;;;7.60;99.90;;;;;;5033561;28;20489;-74
2021/10/15 05:07:56;;;;;;;1999.90;999.90;;;7.60;99.90;;;;;;5033341;28;20104;-75
2021/10/15 05:10:22;;;;;;;1999.90;999.90;;;7.60;99.90;;;;;;5033403;28;20084;-73
2021/10/15 05:12:49;;;;;;;1999.90;999.90;;;7.60;99.90;;;;;;5015446;28;20473;-74
2021/10/15 05:15:15;;;;;;;1999.90;999.90;;;7.50;99.90;;;;;;5033512;28;20036;-74
2021/10/15 05:17:41;;;;;;;1999.90;999.90;;;7.50;99.90;;;;;;5033414;28;20013;-75
2021/10/15 05:20:09;;;;;;;1999.90;999.90;;;7.50;99.90;;;;;;5033426;28;20389;-75
2021/10/15 05:22:35;;;;;;;1999.90;999.90;;;7.50;99.90;;;;;;5033122;28;20021;-74
2021/10/15 05:25:01;;;;;;;1999.90;999.90;;;7.50;99.90;;;;;;5032949;28;20416;-74
2021/10/15 05:27:28;;;;;;;1999.90;999.90;;;7.50;99.90;;;;;;5033168;28;20029;-74
2021/10/15 05:29:55;;;;;;;1999.90;999.90;;;7.40;99.90;;;;;;5033244;28;20041;-75
2021/10/15 05:32:21;;;;;;;1999.90;999.90;;;7.30;99.90;;;;;;5032969;28;20017;-74
2021/10/15 05:34:47;;;;;;;1999.90;999.90;;;7.20;99.90;;;;;;5032869;28;20187;-73
2021/10/15 05:37:14;;;;;;;1999.90;999.90;;;7.20;99.90;;;;;;5032998;28;20024;-73
2021/10/15 05:39:40;;;;;;;1999.90;999.90;;;7.10;99.90;;;;;;5033741;28;20044;-73
2021/10/15 05:42:06;;;;;;;1999.90;999.90;;;7.10;99.90;;;;;;5035271;28;20025;-73
2021/10/15 05:44:33;;;;;;;1999.90;999.90;;;7.00;99.90;;;;;;5035148;28;20032;-74
2021/10/15 05:47:03;;;;;;;1999.90;999.90;;;6.90;99.90;;;;;;5036152;28;20048;-74
2021/10/15 05:49:30;;;;;;;1999.90;999.90;;;7.00;99.90;;;;;;5036017;28;20033;-74
2021/10/15 05:52:08;;;;;;;1999.90;999.90;;;7.00;99.90;;;;;;5035648;28;20079;-73
2021/10/15 05:54:49;;;;;;;1999.90;999.90;;;7.00;99.90;;;;;;5035111;28;21143;-74
2021/10/15 05:59:40;;;;;;;1999.90;999.90;;;6.90;99.90;;;;;;5035109;28;20531;-74
2021/10/15 06:02:07;;;;;;;1999.90;999.90;;;6.90;99.90;;;;;;5034797;28;20037;-74
2021/10/15 06:15:32;;;;;;;1999.90;999.90;;;7.00;99.90;;;;;;5034467;28;20127;-75
2021/10/15 06:17:58;;;;;;;1999.90;999.90;;;6.90;99.90;;;;;;5034852;28;20022;-78
2021/10/15 06:20:24;;;;;;;1999.90;999.90;;;7.00;99.90;;;;;;5033275;28;20029;-80
2021/10/15 06:22:50;;;;;;;1999.90;999.90;;;7.60;99.90;;;;;;5015096;28;20103;-79
2021/10/15 06:25:17;;;;;;;1999.90;999.90;;;7.50;99.90;;;;;;5016404;28;20481;-74
2021/10/15 06:27:43;;;;;;;1999.90;999.90;;;7.50;99.90;;;;;;5035435;28;20033;-74
2021/10/15 06:30:09;;;;;;;1999.90;999.90;;;7.30;99.90;;;;;;5005049;28;20057;-74
2021/10/15 06:32:35;;;;;;;1999.90;999.90;;;7.30;99.90;;;;;;5035233;28;20022;-76
2021/10/15 06:35:01;;;;;;;1999.90;999.90;;;7.20;99.90;;;;;;5034012;28;20120;-74
2021/10/15 06:37:27;;;;;;;1999.90;999.90;;;7.20;99.90;;;;;;5034654;28;20021;-75
2021/10/15 06:39:53;;;;;;;1999.90;999.90;;;7.30;99.90;;;;;;5034067;28;20059;-73
2021/10/15 06:42:18;;;;;;;1999.90;999.90;;;7.30;99.90;;;;;;5032352;28;20018;-74
2021/10/15 06:44:44;;;;;;;1999.90;999.90;;;8.20;99.90;;;;;;5030691;28;20033;-80
2021/10/15 06:47:10;;;;;;;1999.90;999.90;;;8.60;99.90;;;;;;5033305;28;20483;-73
2021/10/15 06:49:36;;;;;;;1999.90;999.90;;;8.50;99.90;;;;;;5031755;28;20380;-75
2021/10/15 06:52:02;;;;;;;1999.90;999.90;;;8.20;99.90;;;;;;5032423;28;20022;-75
2021/10/15 06:54:28;;;;;;;1999.90;999.90;;;8.00;99.90;;;;;;5032180;28;20060;-73
2021/10/15 06:56:53;;;;;;;1999.90;999.90;;;7.80;99.90;;;;;;5033138;28;20025;-75
2021/10/15 06:59:19;;;;;;;1999.90;999.90;;;7.70;99.90;;;;;;5033249;28;20017;-74
2021/10/15 07:01:45;;;;;;;1999.90;999.90;;;7.60;99.90;;;;;;5032333;28;20033;-74
2021/10/15 07:04:11;;;;;;;1999.90;999.90;;;7.60;99.90;;;;;;5030853;28;20354;-74
2021/10/15 07:06:37;;;;;;;1999.90;999.90;;;7.50;99.90;;;;;;5031801;28;20016;-74
2021/10/15 07:09:03;;;;;;;1999.90;999.90;;;7.50;99.90;;;;;;5032308;28;20132;-74
2021/10/15 07:11:33;;;;;;;1999.90;999.90;;;7.40;99.90;;;;;;5032257;28;20104;-74
2021/10/15 07:13:59;;;;;;;1999.90;999.90;;;7.40;99.90;;;;;;5030779;28;20370;-76
2021/10/15 07:16:25;;;;;;;1999.90;999.90;;;7.40;99.90;;;;;;5032505;28;20120;-74
2021/10/15 07:18:51;;;;;;;1999.90;999.90;;;7.50;99.90;;;;;;5031357;28;20100;-74
2021/10/15 07:21:16;;;;;;;1999.90;999.90;;;7.60;99.90;;;;;;5032607;28;20021;-74
2021/10/15 07:23:44;;;;;;;1999.90;999.90;;;7.70;99.90;;;;;;5037400;28;20370;-74
2021/10/15 07:26:10;;;;;;;1999.90;999.90;;;7.80;99.90;;;;;;5036514;28;20443;-74
2021/10/15 07:28:36;;;;;;;1999.90;999.90;;;7.90;99.90;;;;;;5035426;28;20168;-74
2021/10/15 07:31:02;;;;;;;1999.90;999.90;;;8.00;99.90;;;;;;5035219;28;20133;-74
2021/10/15 07:33:29;;;;;;;1999.90;999.90;;;8.00;99.90;;;;;;5035477;28;20044;-74
2021/10/15 07:35:55;;;;;;;1999.90;999.90;;;8.00;99.90;;;;;;5035025;28;20029;-74
2021/10/15 07:38:20;;;;;;;1999.90;999.90;;;8.10;99.90;;;;;;5035734;28;20109;-73
2021/10/15 07:40:46;;;;;;;1999.90;999.90;;;8.20;99.90;;;;;;5035140;28;20104;-75
2021/10/15 07:43:12;;;;;;;1999.90;999.90;;;8.20;99.90;;;;;;5034681;28;20126;-75
2021/10/15 07:45:38;;;;;;;1999.90;999.90;;;8.30;99.90;;;;;;5035089;28;20029;-75
2021/10/15 07:48:04;;;;;;;1999.90;999.90;;;8.50;99.90;;;;;;5035761;28;20024;-75
2021/10/15 07:50:30;;;;;;;1999.90;999.90;;;8.60;99.90;;;;;;5020380;28;20026;-74
2021/10/15 07:52:58;;;;;;;1999.90;999.90;;;8.80;99.90;;;;;;5036889;28;20033;-76
2021/10/15 07:55:24;;;;;;;1999.90;999.90;;;8.80;99.90;;;;;;5035900;28;20057;-74
2021/10/15 07:57:50;;;;;;;1999.90;999.90;;;9.00;99.90;;;;;;5035909;28;20033;-74
2021/10/15 08:00:16;;;;;;;1999.90;999.90;;;9.00;99.90;;;;;;5036178;28;20049;-74
2021/10/15 08:02:43;;;;;;;1999.90;999.90;;;9.10;99.90;;;;;;5035962;28;20030;-74
2021/10/15 08:05:13;;;;;;;1999.90;999.90;;;9.30;99.90;;;;;;5036706;28;20030;-74
2021/10/15 08:07:39;;;;;;;1999.90;999.90;;;9.40;99.90;;;;;;5035999;28;20104;-75
2021/10/15 08:10:06;;;;;;;1999.90;999.90;;;9.60;99.90;;;;;;5035546;28;20465;-75
2021/10/15 08:12:31;;;;;;;1999.90;999.90;;;9.80;99.90;;;;;;5036202;28;20036;-74
2021/10/15 08:14:57;;;;;;;1999.90;999.90;;;10.00;99.90;;;;;;5036328;28;20033;-76
2021/10/15 08:17:23;;;;;;;1999.90;999.90;;;10.10;99.90;;;;;;5035048;28;20021;-74
2021/10/15 08:19:49;;;;;;;1999.90;999.90;;;10.20;99.90;;;;;;5033988;28;20026;-73
2021/10/15 08:22:15;;;;;;;1999.90;999.90;;;10.30;99.90;;;;;;5034479;28;20096;-74
2021/10/15 08:24:43;;;;;;;1999.90;999.90;;;10.40;99.90;;;;;;5036945;28;20028;-74
2021/10/15 08:27:09;;;;;;;1999.90;999.90;;;10.60;99.90;;;;;;5041214;28;20602;-77
2021/10/15 08:29:39;;;;;;;1999.90;999.90;;;10.80;98.60;;;;;;5039025;28;20077;-77
2021/10/15 08:32:06;;;;;;;1999.90;999.90;;;10.80;98.20;;;;;;5018412;28;20041;-84
2021/10/15 08:34:32;;;;;;;1999.90;999.90;;;10.90;97.90;;;;;;5017134;28;20037;-86
2021/10/15 08:36:58;;;;;;;1999.90;999.90;;;11.10;97.70;;;;;;5018281;28;20025;-85
2021/10/15 08:39:27;;;;;;;1999.90;999.90;;;11.10;97.30;;;;;;5018269;28;20377;-86
2021/10/15 08:41:53;;;;;;;1999.90;999.90;;;11.10;96.50;;;;;;5018079;28;20025;-88
2021/10/15 08:44:19;;;;;;;1999.90;999.90;;;11.20;96.80;;;;;;5035746;28;20052;-85
2021/10/15 08:46:45;;;;;;;1999.90;999.90;;;11.30;96.90;;;;;;5018221;28;20021;-86
2021/10/15 08:49:11;;;;;;;1999.90;999.90;;;11.30;96.90;;;;;;5017644;28;20083;-84
2021/10/15 08:51:38;;;;;;;1999.90;999.90;;;11.40;96.60;;;;;;5018010;28;20456;-86
2021/10/15 08:54:04;;;;;;;1999.90;999.90;;;11.40;96.00;;;;;;5017702;28;20145;-86
2021/10/15 08:56:31;;;;;;;1999.90;999.90;;;11.50;96.00;;;;;;5017788;28;20030;-85
2021/10/15 08:58:59;;;;;;;1999.90;999.90;;;11.70;95.00;;;;;;5035475;28;20522;-87
2021/10/15 09:01:37;;;;;;;1999.90;999.90;;;11.70;95.00;;;;;;5018043;28;20462;-87
2021/10/15 09:04:05;;;;;;;1999.90;999.90;;;11.60;95.30;;;;;;5017654;28;20040;-87
2021/10/15 09:06:39;;;;;;;1999.90;999.90;;;11.50;95.40;;;;;;5016101;28;20479;-80
2021/10/15 09:09:05;;;;;;;1999.90;999.90;;;11.60;95.00;;;;;;5016180;28;20057;-80
2021/10/15 09:11:35;;;;;;;1999.90;999.90;;;11.60;95.20;;;;;;5016789;28;20021;-82
2021/10/15 09:14:16;;;;;;;1999.90;999.90;;;11.60;94.90;;;;;;5033562;28;20041;-80
2021/10/15 09:17:10;;;;;;;1999.90;999.90;;;11.80;95.30;;;;;;5033249;28;20017;-77
2021/10/15 09:19:42;;;;;;;1999.90;999.90;;;12.00;94.60;;;;;;5015584;28;20492;-79
2021/10/15 09:22:15;;;;;;;1999.90;999.90;;;12.10;93.80;;;;;;5015755;28;20484;-77
2021/10/15 09:24:46;;;;;;;1999.90;999.90;;;12.00;92.90;;;;;;5033097;28;20102;-77
2021/10/15 09:27:14;;;;;;;1999.90;999.90;;;12.10;92.80;;;;;;5033538;28;20051;-77
2021/10/15 09:30:05;;;;;;;1999.90;999.90;;;12.10;91.90;;;;;;5033740;28;20025;-77
2021/10/15 09:32:42;;;;;;;1999.90;999.90;;;12.10;92.50;;;;;;5033159;28;20029;-81
2021/10/15 09:35:09;;;;;;;1999.90;999.90;;;12.20;92.50;;;;;;5032725;28;20048;-84
2021/10/15 09:37:38;;;;;;;1999.90;999.90;;;12.30;92.10;;;;;;5015489;28;20022;-80
2021/10/15 09:40:11;;;;;;;1999.90;999.90;;;12.20;92.00;;;;;;5033429;28;20048;-78
2021/10/15 09:42:48;;;;;;;1999.90;999.90;;;12.30;92.00;;;;;;5015249;28;20040;-77
2021/10/15 09:45:16;;;;;;;1999.90;999.90;;;12.30;91.60;;;;;;5032893;28;20022;-79
2021/10/15 09:47:53;;;;;;;1999.90;999.90;;;12.40;92.10;;;;;;5033669;28;20028;-78
2021/10/15 09:50:21;;;;;;;1999.90;999.90;;;12.50;92.70;;;;;;5032838;28;20022;-84
2021/10/15 09:52:52;;;;;;;1999.90;999.90;;;13.00;94.70;;;;;;5015910;28;20033;-82
2021/10/15 09:55:33;;;;;;;1999.90;999.90;;;13.10;91.80;;;;;;5016784;28;20036;-81
2021/10/15 09:58:20;;;;;;;1999.90;999.90;;;13.00;91.10;;;;;;5034386;28;20389;-82
2021/10/15 10:00:51;;;;;;;1999.90;999.90;;;13.00;90.50;;;;;;5016511;28;20048;-82
2021/10/15 10:03:19;;;;;;;1999.90;999.90;;;12.90;90.50;;;;;;5015996;28;20032;-82
2021/10/15 10:05:46;;;;;;;1999.90;999.90;;;12.80;90.50;;;;;;5016095;28;20018;-78
2021/10/15 10:08:12;;;;;;;1999.90;999.90;;;12.70;90.70;;;;;;5015562;28;20025;-83
2021/10/15 10:10:40;;;;;;;1999.90;999.90;;;12.90;91.00;;;;;;5016558;28;20044;-81
2021/10/15 10:13:08;;;;;;;1999.90;999.90;;;12.90;90.00;;;;;;5034208;28;20025;-85
2021/10/15 10:15:38;;;;;;;1999.90;999.90;;;12.80;90.50;;;;;;5016121;28;20029;-84
2021/10/15 10:18:24;;;;;;;1999.90;999.90;;;12.90;90.20;;;;;;5015878;28;20025;-84
2021/10/15 10:21:07;;;;;;;1999.90;999.90;;;13.10;89.90;;;;;;5015804;28;20465;-85
2021/10/15 10:23:43;;;;;;;1999.90;999.90;;;13.20;87.90;;;;;;5015820;28;20205;-84
2021/10/15 10:26:11;;;;;;;1999.90;999.90;;;13.20;89.30;;;;;;5033319;28;20040;-82
2021/10/15 10:28:37;;;;;;;1999.90;999.90;;;13.30;88.40;;;;;;5015863;28;20544;-82
2021/10/15 10:31:06;;;;;;;1999.90;999.90;;;13.40;88.20;;;;;;5033180;28;20053;-86
2021/10/15 10:33:50;;;;;;;1999.90;999.90;;;13.40;88.20;;;;;;5015455;28;20033;-86
2021/10/15 10:36:16;;;;;;;1999.90;999.90;;;13.50;88.20;;;;;;5033674;28;20461;-86
2021/10/15 10:38:42;;;;;;;1999.90;999.90;;;13.60;86.80;;;;;;5033943;28;20028;-84
2021/10/15 10:41:08;;;;;;;1999.90;999.90;;;13.50;85.90;;;;;;5033387;28;20523;-82
2021/10/15 10:43:43;;;;;;;1999.90;999.90;;;13.60;85.00;;;;;;5033575;28;20025;-81
2021/10/15 10:46:09;;;;;;;;;;;13.60;84.90;;;;;;5016438;28;20592;-80
2021/10/15 10:48:54;;;;;;;1999.90;999.90;;;13.60;85.50;;;;;;5016198;28;19944;-83
2021/10/15 10:51:24;;;;;;;1999.90;999.90;;;13.60;85.10;;;;;;5015889;28;20556;-86
2021/10/15 10:54:03;;;;;;;1999.90;999.90;;;13.50;85.20;;;;;;5015575;28;20100;-84
2021/10/15 10:56:50;;;;;;;1999.90;999.90;;;13.60;84.90;;;;;;5016257;28;20530;-81
2021/10/15 10:59:19;;;;;;;1999.90;999.90;;;13.70;85.70;;;;;;5036918;28;20053;-85
2021/10/15 11:01:53;;;;;;;1999.90;999.90;;;13.70;84.70;;;;;;5019320;28;20121;-80
2021/10/15 11:04:48;;;;;;;1999.90;999.90;;;13.70;84.00;;;;;;5019707;28;20029;-81
2021/10/15 11:07:17;;;;;;;1999.90;999.90;;;13.70;84.10;;;;;;5036715;28;20101;-79
2021/10/15 11:09:48;;;;;;;1999.90;999.90;;;13.70;85.30;;;;;;5019292;28;20013;-83
2021/10/15 11:12:47;;;;;;;1999.90;999.90;;;13.80;85.20;;;;;;5018871;28;20025;-79
2021/10/15 11:15:14;;;;;;;1999.90;999.90;;;13.90;84.80;;;;;;5018294;28;20123;-81
2021/10/15 11:17:48;;;;;;;1999.90;999.90;;;14.00;84.50;;;;;;5018897;28;20025;-82
2021/10/15 11:20:20;;;;;;;1999.90;999.90;;;14.20;84.70;;;;;;5035629;28;20487;-82
2021/10/15 11:23:10;;;;;;;1999.90;999.90;;;14.20;83.40;;;;;;5019293;28;20025;-82
2021/10/15 11:25:40;;;;;;;1999.90;999.90;;;14.10;83.50;;;;;;5019384;28;20030;-84
2021/10/15 11:28:18;;;;;;;1999.90;999.90;;;13.80;81.90;;;;;;5019418;28;20034;-84
2021/10/15 11:30:47;;;;;;;1999.90;999.90;;;13.60;83.40;;;;;;5025760;28;20175;-86
2021/10/15 11:33:15;;;;;;;1999.90;999.90;;;13.70;83.90;;;;;;5035577;28;20063;-83
2021/10/15 11:35:43;;;;;;;1999.90;999.90;;;13.90;84.70;;;;;;5035608;28;20021;-85
2021/10/15 11:38:19;;;;;;;1999.90;999.90;;;14.00;84.00;;;;;;5035660;28;20021;-83
2021/10/15 11:41:06;;;;;;;1999.90;999.90;;;14.20;84.30;;;;;;5035999;28;20045;-83
2021/10/15 11:43:41;;;;;;;1999.90;999.90;;;14.30;84.20;;;;;;5035779;28;20048;-83
2021/10/15 11:46:15;;;;;;;1999.90;999.90;;;14.40;82.90;;;;;;5035635;28;20033;-85
2021/10/15 11:48:48;;;;;;;1999.90;999.90;;;14.50;82.50;;;;;;5035595;28;20029;-84
2021/10/15 11:51:24;;;;;;;1999.90;999.90;;;14.50;83.40;;;;;;5035764;28;20374;-84
2021/10/15 11:53:58;;;;;;;1999.90;999.90;;;14.30;82.10;;;;;;5035213;28;20043;-82
2021/10/15 11:56:34;;;;;;;1999.90;999.90;;;14.40;82.30;;;;;;5035354;28;20195;-85
2021/10/15 11:59:04;;;;;;;1999.90;999.90;;;14.30;81.60;;;;;;5035241;28;20036;-84
2021/10/15 12:01:32;;;;;;;1999.90;999.90;;;14.20;82.70;;;;;;5035253;28;20052;-84
2021/10/15 12:04:00;;;;;;;1999.90;999.90;;;14.30;82.50;;;;;;5035119;28;20092;-84
2021/10/15 12:06:38;;;;;;;1999.90;999.90;;;14.30;83.10;;;;;;5035349;28;20025;-84
2021/10/15 12:09:04;;;;;;;1999.90;999.90;;;14.20;82.50;;;;;;5036404;28;20057;-85
2021/10/15 12:11:33;;;;;;;1999.90;999.90;;;14.20;84.20;;;;;;5035126;28;20494;-84
2021/10/15 12:14:01;;;;;;;1999.90;999.90;;;14.30;84.60;;;;;;5035894;28;20697;-83
2021/10/15 12:16:30;;;;;;;1999.90;999.90;;;14.40;84.60;;;;;;5034981;28;20052;-86
2021/10/15 12:19:14;;;;;;;1999.90;999.90;;;14.50;83.40;;;;;;5035064;28;20584;-85
2021/10/15 12:21:42;;;;;;;1999.90;999.90;;;14.50;82.40;;;;;;5034754;28;20125;-83
2021/10/15 12:24:23;;;;;;;1999.90;999.90;;;14.50;82.30;;;;;;5034695;28;20014;-84